This is the latest recevied weather packets stored in our database for station/object KA0WKG. If no packets are shown the sender has not sent any weather packets the latest 10 day(s).
| Time | Temp. | Humidity | Pressure | Rain* | Wind** | Luminosity | Snow |
|---|---|---|---|---|---|---|---|
| 1777950008 | 13.33° C | 52% | 1008.6 hPa | 0 mm | - | - | - |
| 1777949708 | 13.33° C | 52% | 1008.6 hPa | 0 mm | - | - | - |
| 1777947309 | 14.44° C | 48% | 1008.1 hPa | 0 mm | - | - | - |
| 1777945507 | 15.56° C | 47% | 1007.6 hPa | 0 mm | - | - | - |
| 1777944307 | 15.56° C | 44% | 1007.4 hPa | 0 mm | - | - | - |
| 1777943107 | 16.11° C | 43% | 1006.9 hPa | 0 mm | - | - | - |
| 1777942207 | 16.67° C | 41% | 1006.3 hPa | 0 mm | - | - | - |
| 1777939807 | 17.78° C | 37% | 1006.1 hPa | 0 mm | - | - | - |
| 1777938307 | 18.33° C | 36% | 1006 hPa | 0 mm | - | - | - |
| 1777936508 | 18.89° C | 35% | 1005.5 hPa | 0 mm | - | - | - |
| 1777935007 | 19.44° C | 33% | 1005.2 hPa | 0 mm | - | - | - |
| 1777932306 | 21.11° C | 31% | 1004.5 hPa | 0 mm | - | - | - |
| 1777931707 | 21.67° C | 31% | 1004.4 hPa | 0 mm | - | - | - |
| 1777931106 | 21.11° C | 30% | 1004.3 hPa | 0 mm | - | - | - |
| 1777929307 | 22.78° C | 27% | 1004.3 hPa | 0 mm | - | - | - |
| 1777928707 | 23.33° C | 29% | 1004.4 hPa | 0 mm | - | - | - |
| 1777924808 | 23.33° C | 28% | 1004.4 hPa | 0 mm | - | - | - |
| 1777923007 | 25.56° C | 18% | 1004.5 hPa | 0 mm | - | - | - |
| 1777921206 | 25.56° C | 17% | 1004.7 hPa | 0 mm | - | - | - |
| 1777920906 | 25.56° C | 18% | 1004.7 hPa | 0 mm | - | - | - |
| 1777919708 | 24.44° C | 21% | 1005 hPa | 0 mm | - | - | - |
| 1777916706 | 25° C | 21% | 1005.7 hPa | 0 mm | - | - | - |
| 1777916106 | 24.44° C | 24% | 1005.8 hPa | 0 mm | - | - | - |
| 1777914606 | 23.33° C | 23% | 1005.9 hPa | 0 mm | - | - | - |
| 1777913106 | 22.78° C | 27% | 1005.9 hPa | 0 mm | - | - | - |
* Rain latest hour (hover to see other rain measurements)
** Current wind speed in m/s (hover to see current wind gust speed)